Time;durP1;ratioP1;P1;durP2;ratioP2;P2;SDS_P1;SDS_P2;PMS_P1;PMS_P2;Temp;Humidity;BMP_temperature;BMP_pressure;BME280_temperature;BME280_humidity;BME280_pressure;Samples;Min_cycle;Max_cycle;Signal;HPM_P1;HPM_P2
2022/11/30 00:01:26;;;;;;;72.93;40.33;;;;;;;6.56;100.00;102195.81;5032629;28;20471;-50
2022/11/30 00:03:53;;;;;;;78.07;39.15;;;;;;;6.54;100.00;102193.22;5031878;28;20064;-51
2022/11/30 00:06:21;;;;;;;74.32;39.60;;;;;;;6.53;100.00;102196.81;5031868;28;20048;-51
2022/11/30 00:08:48;;;;;;;77.53;39.30;;;;;;;6.56;100.00;102201.09;5031210;28;20050;-51
2022/11/30 00:11:16;;;;;;;77.65;38.97;;;;;;;6.57;100.00;102205.47;5030134;28;20032;-53
2022/11/30 00:13:42;;;;;;;80.75;41.78;;;;;;;6.57;100.00;102198.38;5032761;28;20056;-53
2022/11/30 00:16:08;;;;;;;80.18;40.97;;;;;;;6.59;100.00;102207.09;5031104;28;20034;-50
2022/11/30 00:18:34;;;;;;;79.10;40.35;;;;;;;6.58;100.00;102202.75;5032597;28;20040;-54
2022/11/30 00:21:07;;;;;;;80.82;39.75;;;;;;;6.58;100.00;102201.91;5024860;28;20030;-52
2022/11/30 00:23:34;;;;;;;78.07;39.00;;;;;;;6.58;100.00;102202.75;5032394;28;20060;-54
2022/11/30 00:26:05;;;;;;;86.35;40.72;;;;;;;6.57;100.00;102198.38;5031692;28;20037;-55
2022/11/30 00:28:33;;;;;;;82.15;41.20;;;;;;;6.57;100.00;102203.66;5032502;28;20053;-51
2022/11/30 00:31:04;;;;;;;77.97;39.58;;;;;;;6.59;100.00;102198.34;5035073;28;20068;-53
2022/11/30 00:33:34;;;;;;;75.13;40.63;;;;;;;6.57;100.00;102200.19;5034923;28;20052;-52
2022/11/30 00:36:23;;;;;;;77.93;40.15;;;;;;;6.62;100.00;102200.88;5038468;28;20028;-52
2022/11/30 00:38:50;;;;;;;73.32;40.05;;;;;;;6.58;100.00;102200.13;5035568;28;20038;-53
2022/11/30 00:41:17;;;;;;;78.43;41.08;;;;;;;6.60;100.00;102205.34;5035480;28;20060;-53
2022/11/30 00:43:42;;;;;;;76.03;41.38;;;;;;;6.58;100.00;102200.13;5038300;28;20076;-51
2022/11/30 00:46:08;;;;;;;74.82;40.45;;;;;;;6.59;100.00;102201.81;5036032;28;20025;-53
2022/11/30 00:48:34;;;;;;;74.65;39.60;;;;;;;6.59;100.00;102208.91;5035738;28;20033;-53
2022/11/30 00:51:00;;;;;;;75.70;39.58;;;;;;;6.59;100.00;102209.75;5034932;28;20017;-53
2022/11/30 00:53:25;;;;;;;72.20;39.25;;;;;;;6.58;100.00;102213.31;5033670;28;20022;-52
2022/11/30 00:55:51;;;;;;;71.07;39.85;;;;;;;6.59;100.00;102211.53;5035294;28;20060;-52
2022/11/30 00:58:16;;;;;;;78.22;39.60;;;;;;;6.61;100.00;102217.59;5033308;28;20025;-53
2022/11/30 01:00:42;;;;;;;71.35;40.00;;;;;;;6.62;100.00;102217.56;5034982;28;20481;-53
2022/11/30 01:03:07;;;;;;;77.40;40.58;;;;;;;6.60;100.00;102210.63;5034489;28;20118;-51
2022/11/30 01:05:33;;;;;;;78.70;40.05;;;;;;;6.58;100.00;102210.69;5034832;28;20057;-51
2022/11/30 01:08:00;;;;;;;77.68;40.72;;;;;;;6.60;100.00;102211.47;5034390;28;20046;-51
2022/11/30 01:10:26;;;;;;;74.65;41.35;;;;;;;6.60;100.00;102219.41;5034812;28;20117;-52
2022/11/30 01:12:52;;;;;;;74.47;39.10;;;;;;;6.61;100.00;102220.25;5033628;28;20100;-53
2022/11/30 01:15:17;;;;;;;74.72;39.83;;;;;;;6.62;100.00;102221.97;5035059;28;20423;-51
2022/11/30 01:17:43;;;;;;;72.80;38.75;;;;;;;6.62;100.00;102216.72;5033865;28;20490;-52
2022/11/30 01:20:08;;;;;;;71.20;37.95;;;;;;;6.61;100.00;102221.13;5034705;28;20041;-54
2022/11/30 01:22:34;;;;;;;69.75;38.13;;;;;;;6.62;100.00;102220.19;5034103;28;20037;-51
2022/11/30 01:24:59;;;;;;;70.35;38.95;;;;;;;6.62;100.00;102221.97;5034689;28;20056;-52
2022/11/30 01:27:25;;;;;;;67.07;38.40;;;;;;;6.61;100.00;102221.13;5034645;28;20262;-51
2022/11/30 01:29:50;;;;;;;66.07;36.13;;;;;;;6.61;100.00;102215.84;5034362;28;20029;-54
2022/11/30 01:32:15;;;;;;;64.10;35.30;;;;;;;6.63;100.00;102218.44;5033667;28;20113;-51
2022/11/30 01:34:41;;;;;;;69.60;35.95;;;;;;;6.64;100.00;102214.84;5034916;28;20032;-52
2022/11/30 01:37:06;;;;;;;65.22;36.35;;;;;;;6.63;100.00;102216.66;5033679;28;20030;-52
2022/11/30 01:39:31;;;;;;;60.22;35.17;;;;;;;6.63;100.00;102215.78;5032157;28;20029;-52
2022/11/30 01:41:56;;;;;;;63.65;34.08;;;;;;;6.65;100.00;102221.88;5033065;28;20030;-51
2022/11/30 01:44:25;;;;;;;69.82;34.20;;;;;;;6.63;100.00;102208.72;5034291;28;20025;-51
2022/11/30 01:47:06;;;;;;;57.75;32.97;;;;;;;6.66;100.00;102213.00;5033759;28;20124;-52
2022/11/30 01:49:38;;;;;;;57.67;33.10;;;;;;;6.60;100.00;102208.00;5034137;28;20056;-54
2022/11/30 01:52:18;;;;;;;57.25;33.38;;;;;;;6.63;100.00;102216.66;5033593;28;20026;-51
2022/11/30 01:54:50;;;;;;;58.42;32.58;;;;;;;6.60;100.00;102222.03;5024271;28;20080;-52
2022/11/30 01:57:25;;;;;;;52.22;32.58;;;;;;;6.61;100.00;102225.53;5031814;28;20021;-51
2022/11/30 01:59:53;;;;;;;53.50;31.42;;;;;;;6.61;100.00;102230.81;5033419;28;20510;-51
2022/11/30 02:02:23;;;;;;;56.00;32.67;;;;;;;6.59;100.00;102230.88;5033678;28;20060;-51
2022/11/30 02:04:49;;;;;;;58.92;31.92;;;;;;;6.59;100.00;102238.78;5033404;28;20036;-52
2022/11/30 02:07:14;;;;;;;55.28;32.78;;;;;;;6.59;100.00;102237.94;5033236;28;20029;-51
2022/11/30 02:09:44;;;;;;;54.78;31.55;;;;;;;6.59;100.00;102238.78;5031648;28;20021;-51
2022/11/30 02:12:21;;;;;;;;;;;;;;;6.67;100.00;102236.72;5025347;28;20029;-51
2022/11/30 02:14:55;;;;;;;49.30;29.48;;;;;;;6.61;100.00;102238.72;5033809;28;19916;-51
2022/11/30 02:17:40;;;;;;;51.60;30.25;;;;;;;6.59;100.00;102224.72;5032997;28;20040;-52
2022/11/30 02:20:25;;;;;;;52.05;29.77;;;;;;;6.60;100.00;102232.59;5024492;28;20049;-52
2022/11/30 02:23:08;;;;;;;51.97;29.90;;;;;;;6.59;100.00;102230.00;5032322;28;20045;-52
2022/11/30 02:26:12;;;;;;;53.33;29.60;;;;;;;6.62;100.00;102232.53;5023087;28;20037;-51
2022/11/30 02:29:05;;;;;;;55.05;30.67;;;;;;;6.62;100.00;102235.19;5033390;28;20049;-55
2022/11/30 02:31:41;;;;;;;50.05;30.40;;;;;;;6.58;100.00;102231.81;5033312;28;20030;-52
2022/11/30 02:34:08;;;;;;;51.65;29.55;;;;;;;6.57;100.00;102237.13;5033021;28;20067;-52
2022/11/30 02:36:34;;;;;;;49.38;29.35;;;;;;;6.57;100.00;102237.13;5033522;28;20048;-51
2022/11/30 02:39:00;;;;;;;46.88;30.13;;;;;;;6.57;100.00;102231.84;5032791;28;20022;-52
2022/11/30 02:41:25;;;;;;;49.17;30.25;;;;;;;6.56;100.00;102238.94;5035949;28;20064;-51
2022/11/30 02:43:51;;;;;;;50.72;29.23;;;;;;;6.57;100.00;102243.28;5034107;28;20028;-52
2022/11/30 02:46:36;;;;;;;48.38;28.35;;;;;;;6.59;100.00;102232.66;5031553;28;20535;-52
2022/11/30 02:49:15;;;;;;;43.42;27.15;;;;;;;6.58;100.00;102244.16;5034820;28;20033;-51
2022/11/30 02:51:43;;;;;;;47.70;28.73;;;;;;;6.57;100.00;102247.69;5036331;28;20033;-52
2022/11/30 02:54:08;;;;;;;47.58;27.52;;;;;;;6.58;100.00;102250.28;5032409;28;20033;-52
2022/11/30 02:56:33;;;;;;;51.50;29.10;;;;;;;6.57;100.00;102242.41;5038790;28;20025;-51
2022/11/30 02:58:59;;;;;;;48.97;29.00;;;;;;;6.57;100.00;102247.69;5032056;28;20053;-54
2022/11/30 03:01:24;;;;;;;47.70;28.08;;;;;;;6.56;100.00;102246.84;5032783;28;20025;-51
2022/11/30 03:03:49;;;;;;;51.67;28.70;;;;;;;6.57;100.00;102247.69;5028494;28;20021;-51
2022/11/30 03:06:15;;;;;;;42.08;27.45;;;;;;;6.57;100.00;102250.34;5028987;28;20032;-51
2022/11/30 03:08:40;;;;;;;42.70;27.55;;;;;;;6.57;100.00;102250.34;5031283;28;20029;-51
2022/11/30 03:11:05;;;;;;;43.10;25.83;;;;;;;6.56;100.00;102248.59;5021281;28;20026;-51
2022/11/30 03:13:32;;;;;;;43.22;25.77;;;;;;;6.56;100.00;102243.31;5032629;28;20021;-52
2022/11/30 03:15:57;;;;;;;42.80;25.80;;;;;;;6.54;100.00;102246.03;5032205;28;20430;-51
2022/11/30 03:18:23;;;;;;;41.33;25.60;;;;;;;6.55;100.00;102245.09;5026450;28;20026;-51
2022/11/30 03:20:48;;;;;;;41.85;24.88;;;;;;;6.57;100.00;102250.34;5028995;28;20037;-51
2022/11/30 03:23:13;;;;;;;39.28;24.77;;;;;;;6.57;100.00;102245.06;5031714;28;20025;-52
2022/11/30 03:25:38;;;;;;;37.90;24.52;;;;;;;6.58;100.00;102252.94;5032245;28;20033;-51
2022/11/30 03:28:04;;;;;;;36.63;25.10;;;;;;;6.57;100.00;102247.69;5031922;28;20053;-52
2022/11/30 03:30:29;;;;;;;36.38;25.00;;;;;;;6.56;100.00;102246.84;5031213;28;20368;-51
2022/11/30 03:32:54;;;;;;;39.53;23.95;;;;;;;6.56;100.00;102244.22;5032352;28;20029;-52
2022/11/30 03:35:20;;;;;;;38.17;25.80;;;;;;;6.56;100.00;102245.97;5032075;28;20017;-55
2022/11/30 03:37:46;;;;;;;35.63;23.88;;;;;;;6.57;100.00;102247.69;5028087;28;20123;-52
2022/11/30 03:40:11;;;;;;;37.22;25.45;;;;;;;6.53;100.00;102246.97;5031474;28;20094;-52
2022/11/30 03:42:37;;;;;;;36.05;25.35;;;;;;;6.52;100.00;102247.00;5032256;28;20041;-53
2022/11/30 03:45:02;;;;;;;36.20;24.38;;;;;;;6.51;100.00;102250.56;5031596;28;20025;-52
2022/11/30 03:47:28;;;;;;;34.08;23.73;;;;;;;6.49;100.00;102250.59;5031896;28;20025;-51
2022/11/30 03:49:53;;;;;;;35.63;23.25;;;;;;;6.49;100.00;102250.59;5031089;28;20025;-52
2022/11/30 03:52:18;;;;;;;37.28;24.67;;;;;;;6.47;100.00;102252.44;5031531;28;20026;-54
2022/11/30 03:54:43;;;;;;;36.17;24.92;;;;;;;6.46;100.00;102253.34;5030491;28;20025;-54
2022/11/30 03:57:08;;;;;;;37.25;24.10;;;;;;;6.45;100.00;102257.78;5031677;28;20017;-51
2022/11/30 03:59:34;;;;;;;38.50;24.13;;;;;;;6.43;100.00;102254.34;5031423;28;20379;-53
2022/11/30 04:01:59;;;;;;;35.83;23.90;;;;;;;6.42;100.00;102257.88;5031709;28;20029;-52
2022/11/30 04:04:24;;;;;;;32.97;24.13;;;;;;;6.41;100.00;102253.56;5035996;28;20028;-52
2022/11/30 04:06:49;;;;;;;33.75;23.02;;;;;;;6.40;100.00;102249.19;5035179;28;20018;-53
2022/11/30 04:09:15;;;;;;;32.88;22.38;;;;;;;6.40;100.00;102251.81;5036092;28;20033;-52
2022/11/30 04:11:40;;;;;;;34.45;23.23;;;;;;;6.40;100.00;102251.81;5035431;28;20017;-52
2022/11/30 04:14:06;;;;;;;33.47;22.63;;;;;;;6.39;100.00;102252.72;5035499;28;20100;-55
2022/11/30 04:16:31;;;;;;;33.00;23.58;;;;;;;6.38;100.00;102248.38;5035396;28;20036;-52
2022/11/30 04:18:56;;;;;;;33.58;22.88;;;;;;;6.40;100.00;102261.53;5035575;28;20028;-53
2022/11/30 04:21:21;;;;;;;38.20;23.60;;;;;;;6.39;100.00;102260.63;5035535;28;20026;-51
2022/11/30 04:23:47;;;;;;;32.03;22.73;;;;;;;6.39;100.00;102260.63;5038859;28;20494;-51
2022/11/30 04:26:14;;;;;;;36.83;22.30;;;;;;;6.37;100.00;102257.19;5042748;28;20128;-55
2022/11/30 04:28:39;;;;;;;30.48;20.98;;;;;;;6.37;100.00;102259.84;5035568;28;20029;-51
2022/11/30 04:31:05;;;;;;;33.85;22.63;;;;;;;6.36;100.00;102260.78;5035181;28;20025;-49
2022/11/30 04:33:30;;;;;;;32.63;22.67;;;;;;;6.35;100.00;102263.47;5030303;28;20030;-49
2022/11/30 04:35:58;;;;;;;32.67;22.85;;;;;;;6.34;100.00;102265.22;5034748;28;20026;-52
2022/11/30 04:38:24;;;;;;;35.90;22.45;;;;;;;6.35;100.00;102266.97;5035398;28;20109;-49
2022/11/30 04:40:50;;;;;;;34.20;22.70;;;;;;;6.33;100.00;102258.25;5035214;28;20461;-49
2022/11/30 04:43:15;;;;;;;34.78;23.50;;;;;;;6.30;100.00;102259.19;5034764;28;20060;-50
2022/11/30 04:45:43;;;;;;;33.17;22.60;;;;;;;6.32;100.00;102266.22;5050319;28;20078;-51
2022/11/30 04:48:09;;;;;;;41.20;23.10;;;;;;;6.30;100.00;102268.91;5042150;28;20438;-51
2022/11/30 04:50:35;;;;;;;33.00;22.80;;;;;;;6.30;100.00;102268.91;5035021;28;20113;-54
2022/11/30 04:53:01;;;;;;;36.15;23.60;;;;;;;6.28;100.00;102265.47;5035152;28;20475;-52
2022/11/30 04:55:27;;;;;;;36.15;23.60;;;;;;;6.28;100.00;102268.09;5034803;28;20430;-51
2022/11/30 04:57:52;;;;;;;35.33;23.10;;;;;;;6.27;100.00;102267.22;5029437;28;20095;-53
2022/11/30 05:00:18;;;;;;;31.67;22.70;;;;;;;6.26;100.00;102270.78;5035069;28;20040;-52
2022/11/30 05:02:44;;;;;;;33.33;22.65;;;;;;;6.25;100.00;102270.84;5035395;28;20394;-51
2022/11/30 05:05:10;;;;;;;32.08;21.85;;;;;;;6.24;100.00;102269.09;5027524;28;20032;-52
2022/11/30 05:07:36;;;;;;;38.58;22.35;;;;;;;6.22;100.00;102263.03;5034591;28;20048;-53
2022/11/30 05:10:02;;;;;;;30.25;21.33;;;;;;;6.22;100.00;102265.66;5034657;28;20021;-51
2022/11/30 05:12:28;;;;;;;36.10;22.67;;;;;;;6.20;100.00;102267.50;5034952;28;20064;-51
2022/11/30 05:14:53;;;;;;;32.22;23.10;;;;;;;6.18;100.00;102266.69;5033890;28;20030;-51
2022/11/30 05:17:18;;;;;;;33.28;22.65;;;;;;;6.16;100.00;102271.16;5034754;28;20025;-51
2022/11/30 05:19:43;;;;;;;34.40;22.00;;;;;;;6.15;100.00;102272.09;5033518;28;20033;-52
2022/11/30 05:22:09;;;;;;;32.85;21.55;;;;;;;6.09;100.00;102271.34;5034571;28;20483;-52
2022/11/30 05:24:34;;;;;;;30.50;21.67;;;;;;;6.09;100.00;102276.63;5033871;28;20072;-55
2022/11/30 05:27:00;;;;;;;30.63;21.45;;;;;;;6.08;100.00;102274.09;5033868;28;20049;-52
2022/11/30 05:29:25;;;;;;;30.65;21.48;;;;;;;6.07;100.00;102274.97;5034228;28;20018;-53
2022/11/30 05:31:50;;;;;;;36.30;22.88;;;;;;;6.07;100.00;102270.56;5034073;28;20034;-51
2022/11/30 05:34:16;;;;;;;31.50;21.88;;;;;;;6.03;100.00;102278.63;5043302;28;20029;-51
2022/11/30 05:36:41;;;;;;;33.38;22.35;;;;;;;6.02;100.00;102277.78;5034083;28;20479;-52
2022/11/30 05:39:06;;;;;;;38.38;22.48;;;;;;;6.00;100.00;102276.97;5034120;28;20025;-53
2022/11/30 05:41:32;;;;;;;32.75;22.17;;;;;;;5.99;100.00;102277.03;5034068;28;20071;-52
2022/11/30 05:43:57;;;;;;;31.05;21.08;;;;;;;5.98;100.00;102285.84;5033542;28;20025;-51
2022/11/30 05:46:22;;;;;;;31.70;21.85;;;;;;;5.96;100.00;102285.00;5035361;28;20391;-53
2022/11/30 05:48:48;;;;;;;33.63;21.95;;;;;;;5.93;100.00;102288.63;5033374;28;20091;-52
2022/11/30 05:51:15;;;;;;;32.67;21.02;;;;;;;5.92;100.00;102290.38;5033710;28;20037;-51
2022/11/30 05:53:41;;;;;;;30.45;22.08;;;;;;;5.88;100.00;102299.31;5033626;28;20026;-54
2022/11/30 05:56:12;;;;;;;29.38;21.15;;;;;;;5.87;100.00;102294.09;5033903;28;20029;-51
2022/11/30 05:58:38;;;;;;;37.33;21.42;;;;;;;5.89;100.00;102301.03;5033079;28;20041;-51
2022/11/30 06:01:04;;;;;;;37.97;22.00;;;;;;;5.88;100.00;102288.78;5031369;28;20029;-52
2022/11/30 06:03:32;;;;;;;31.92;22.67;;;;;;;5.86;100.00;102300.28;5032063;28;20079;-52
2022/11/30 06:05:57;;;;;;;30.80;22.25;;;;;;;5.86;100.00;102303.78;5034017;28;20059;-53
2022/11/30 06:08:23;;;;;;;32.60;22.90;;;;;;;5.86;100.00;102311.69;5033228;28;20026;-52
2022/11/30 06:10:48;;;;;;;33.83;22.30;;;;;;;5.86;100.00;102306.44;5033766;28;20507;-53
2022/11/30 06:13:14;;;;;;;29.27;21.38;;;;;;;5.86;100.00;102305.53;5032937;28;20056;-52
2022/11/30 06:15:40;;;;;;;32.58;22.20;;;;;;;5.85;100.00;102309.97;5033800;28;20138;-52
2022/11/30 06:18:06;;;;;;;32.50;21.95;;;;;;;5.85;100.00;102304.69;5023671;28;20060;-51
2022/11/30 06:20:32;;;;;;;33.15;23.42;;;;;;;5.84;100.00;102305.59;5033581;28;20102;-53
2022/11/30 06:22:57;;;;;;;33.83;22.80;;;;;;;5.84;100.00;102308.22;5033543;28;20104;-52
2022/11/30 06:25:23;;;;;;;34.30;22.58;;;;;;;5.84;100.00;102310.88;5033200;28;20136;-52
2022/11/30 06:27:49;;;;;;;36.10;24.70;;;;;;;5.83;100.00;102313.56;5032397;28;20033;-51
2022/11/30 06:30:14;;;;;;;31.05;20.95;;;;;;;5.82;100.00;102312.69;5033248;28;20021;-54
2022/11/30 06:32:47;;;;;;;35.00;22.55;;;;;;;5.81;100.00;102307.47;5031485;28;20044;-53
2022/11/30 06:35:13;;;;;;;32.58;22.63;;;;;;;5.81;100.00;102311.00;5035815;28;20032;-53
2022/11/30 06:37:39;;;;;;;32.33;22.92;;;;;;;5.80;100.00;102306.63;5032654;28;20046;-52
2022/11/30 06:40:05;;;;;;;34.28;21.92;;;;;;;5.80;100.00;102317.16;5036468;28;20392;-54
2022/11/30 06:42:31;;;;;;;29.67;20.63;;;;;;;5.80;100.00;102313.69;5031667;28;20120;-51
2022/11/30 06:44:57;;;;;;;32.92;22.92;;;;;;;5.81;100.00;102305.72;5032875;28;20527;-53
2022/11/30 06:47:23;;;;;;;34.90;21.80;;;;;;;5.82;100.00;102311.84;5032800;28;20025;-54
2022/11/30 06:49:48;;;;;;;34.03;22.63;;;;;;;5.80;100.00;102311.91;5031460;28;20479;-51
2022/11/30 06:52:13;;;;;;;32.17;21.40;;;;;;;5.81;100.00;102312.75;5032866;28;20072;-51
2022/11/30 06:54:39;;;;;;;34.10;23.27;;;;;;;5.79;100.00;102318.06;5031971;28;20433;-52
2022/11/30 06:57:04;;;;;;;32.22;22.35;;;;;;;5.81;100.00;102324.19;5030575;28;20033;-51
2022/11/30 06:59:29;;;;;;;32.80;21.80;;;;;;;5.82;100.00;102328.53;5031567;28;20079;-54
2022/11/30 07:01:55;;;;;;;34.33;23.13;;;;;;;5.81;100.00;102332.09;5029922;28;20087;-51
2022/11/30 07:04:20;;;;;;;32.53;22.05;;;;;;;5.82;100.00;102330.31;5031758;28;20030;-51
2022/11/30 07:06:45;;;;;;;29.23;21.33;;;;;;;5.81;100.00;102325.94;5027247;28;20677;-49
2022/11/30 07:09:12;;;;;;;34.30;22.95;;;;;;;5.80;100.00;102326.88;5030985;28;20061;-52
2022/11/30 07:11:37;;;;;;;32.63;22.65;;;;;;;5.81;100.00;102332.09;5031111;28;20112;-51
2022/11/30 07:14:02;;;;;;;29.98;21.92;;;;;;;5.82;100.00;102327.66;5032339;28;20100;-52
2022/11/30 07:16:28;;;;;;;37.67;23.13;;;;;;;5.82;100.00;102331.16;5032173;28;20028;-52
2022/11/30 07:18:53;;;;;;;31.17;22.05;;;;;;;5.82;100.00;102335.56;5016061;28;20426;-51
2022/11/30 07:21:18;;;;;;;32.17;22.40;;;;;;;5.83;100.00;102332.00;5030531;28;20036;-51
2022/11/30 07:26:27;;;;;;;29.50;21.45;;;;;;;5.83;100.00;102339.91;5028306;28;20454;-54
2022/11/30 07:28:53;;;;;;;32.47;22.90;;;;;;;5.84;100.00;102346.94;5029264;28;20021;-53
2022/11/30 07:31:27;;;;;;;35.05;22.88;;;;;;;5.82;100.00;102352.25;5028676;28;20067;-53
2022/11/30 07:33:54;;;;;;;32.88;22.15;;;;;;;5.80;100.00;102354.06;5028270;28;20123;-51
2022/11/30 07:36:20;;;;;;;35.10;22.90;;;;;;;5.81;100.00;102352.28;5027504;28;20044;-53
2022/11/30 07:38:46;;;;;;;31.27;21.65;;;;;;;5.82;100.00;102352.25;5029608;28;20029;-53
2022/11/30 07:41:11;;;;;;;33.45;22.35;;;;;;;5.82;100.00;102360.16;5029675;28;20043;-53
2022/11/30 07:43:37;;;;;;;33.05;22.35;;;;;;;5.83;100.00;102361.00;5027045;28;20429;-54
2022/11/30 07:46:03;;;;;;;33.33;22.85;;;;;;;5.81;100.00;102361.09;5028435;28;20092;-52
2022/11/30 07:48:29;;;;;;;34.88;23.30;;;;;;;5.82;100.00;102365.44;5023888;28;20030;-53
2022/11/30 07:51:00;;;;;;;31.13;23.98;;;;;;;5.83;100.00;102372.44;5028036;28;20041;-53
2022/11/30 07:53:25;;;;;;;35.10;23.80;;;;;;;5.85;100.00;102372.41;5025764;28;20368;-51
2022/11/30 07:55:50;;;;;;;39.65;24.95;;;;;;;5.86;100.00;102369.72;5025229;28;20048;-52
2022/11/30 07:58:16;;;;;;;37.88;24.45;;;;;;;5.87;100.00;102370.56;5026391;28;20044;-52
2022/11/30 08:00:41;;;;;;;39.05;25.10;;;;;;;5.86;100.00;102374.09;5027493;28;20050;-51
2022/11/30 08:03:06;;;;;;;35.97;23.73;;;;;;;5.87;100.00;102368.78;5024877;28;20053;-52
2022/11/30 08:05:31;;;;;;;37.80;25.13;;;;;;;5.91;100.00;102377.44;5026861;28;20550;-54
2022/11/30 08:07:57;;;;;;;37.75;23.73;;;;;;;5.93;100.00;102379.13;5021492;28;20026;-59
2022/11/30 08:10:23;;;;;;;35.72;24.65;;;;;;;5.93;100.00;102380.91;5029979;28;20021;-52
2022/11/30 08:12:48;;;;;;;40.78;23.75;;;;;;;5.96;100.00;102383.47;5034647;28;20040;-52
2022/11/30 08:15:15;;;;;;;39.72;24.80;;;;;;;5.97;100.00;102390.47;5031672;28;20030;-52
2022/11/30 08:17:40;;;;;;;36.33;23.58;;;;;;;5.97;100.00;102382.56;5029440;28;20018;-52
2022/11/30 08:20:07;;;;;;;37.20;23.55;;;;;;;6.01;100.00;102388.59;5031719;28;20491;-52
2022/11/30 08:22:33;;;;;;;32.45;23.52;;;;;;;6.02;100.00;102383.28;5031340;28;20100;-55
2022/11/30 08:24:59;;;;;;;38.20;24.08;;;;;;;6.04;100.00;102389.34;5031285;28;20528;-53
2022/11/30 08:27:24;;;;;;;37.83;23.45;;;;;;;6.06;100.00;102402.50;5030904;28;20152;-53
2022/11/30 08:29:49;;;;;;;38.20;24.42;;;;;;;6.06;100.00;102394.59;5037936;28;20070;-54
2022/11/30 08:32:15;;;;;;;38.03;23.63;;;;;;;6.09;100.00;102400.63;5025756;28;20033;-52
2022/11/30 08:34:41;;;;;;;40.70;25.00;;;;;;;6.08;100.00;102395.41;5022253;28;20041;-55
2022/11/30 08:37:06;;;;;;;44.15;25.42;;;;;;;6.12;100.00;102402.31;5032458;28;20083;-54
2022/11/30 08:39:33;;;;;;;39.63;25.33;;;;;;;6.14;100.00;102404.91;5030035;28;20041;-54
2022/11/30 08:41:59;;;;;;;42.88;24.70;;;;;;;6.16;100.00;102406.59;5026529;28;20403;-56
2022/11/30 08:44:24;;;;;;;40.03;25.85;;;;;;;6.20;100.00;102409.97;5034245;28;20025;-53
2022/11/30 08:46:49;;;;;;;39.60;26.35;;;;;;;6.21;100.00;102409.94;5029674;28;20026;-53
2022/11/30 08:49:15;;;;;;;43.40;25.52;;;;;;;6.23;100.00;102408.09;5029961;28;20067;-54
2022/11/30 08:51:40;;;;;;;37.85;26.83;;;;;;;6.25;100.00;102418.59;5031809;28;20033;-56
2022/11/30 08:54:05;;;;;;;42.28;26.50;;;;;;;6.24;100.00;102415.06;5032190;28;20116;-52
2022/11/30 08:56:30;;;;;;;35.90;25.00;;;;;;;6.24;100.00;102415.06;5033213;28;20033;-55
2022/11/30 08:58:56;;;;;;;33.45;23.63;;;;;;;6.26;100.00;102415.03;5033625;28;20467;-57
2022/11/30 09:01:23;;;;;;;35.17;24.38;;;;;;;6.26;100.00;102410.63;5034489;28;20029;-59
2022/11/30 09:03:52;;;;;;;34.78;23.65;;;;;;;6.27;100.00;102416.75;5035800;28;20033;-52
2022/11/30 09:06:20;;;;;;;35.17;24.02;;;;;;;6.31;100.00;102421.00;5031344;28;20033;-54
2022/11/30 09:08:48;;;;;;;36.58;24.35;;;;;;;6.36;100.00;102421.75;5031363;28;20104;-53
2022/11/30 09:11:30;;;;;;;37.08;24.02;;;;;;;6.41;100.00;102422.47;5031175;28;20036;-56
2022/11/30 09:13:58;;;;;;;34.72;24.73;;;;;;;6.42;100.00;102426.81;5027148;28;20051;-54
2022/11/30 09:16:24;;;;;;;31.55;23.48;;;;;;;6.44;100.00;102427.59;5030660;28;20029;-53
2022/11/30 09:18:50;;;;;;;37.22;25.17;;;;;;;6.44;100.00;102432.88;5034234;28;20037;-53
2022/11/30 09:21:19;;;;;;;35.25;25.50;;;;;;;6.46;100.00;102430.19;5033687;28;20033;-53
2022/11/30 09:23:46;;;;;;;34.15;25.20;;;;;;;6.50;100.00;102437.13;5034979;28;20025;-56
2022/11/30 09:26:15;;;;;;;34.03;24.70;;;;;;;6.53;100.00;102428.22;5035124;28;20053;-52
2022/11/30 09:28:40;;;;;;;38.93;26.07;;;;;;;6.56;100.00;102438.66;5034279;28;20425;-53
2022/11/30 09:31:10;;;;;;;31.40;24.02;;;;;;;6.60;100.00;102437.66;5034294;28;20030;-54
2022/11/30 09:33:36;;;;;;;34.92;24.63;;;;;;;6.62;100.00;102435.81;5034390;28;20502;-56
2022/11/30 09:36:04;;;;;;;35.75;23.88;;;;;;;6.64;100.00;102440.16;5034964;28;20084;-55
2022/11/30 09:38:30;;;;;;;36.28;25.65;;;;;;;6.69;100.00;102437.34;5034493;28;20044;-55
2022/11/30 09:41:03;;;;;;;37.10;26.38;;;;;;;6.71;100.00;102432.88;5035537;28;20065;-56
2022/11/30 09:43:52;;;;;;;32.40;25.30;;;;;;;6.76;100.00;102436.22;5036350;28;20033;-57
2022/11/30 09:46:29;;;;;;;33.30;25.30;;;;;;;6.76;100.00;102441.50;5035212;28;20030;-56
2022/11/30 09:49:26;;;;;;;34.17;25.50;;;;;;;6.80;100.00;102434.34;5034212;28;20402;-57
2022/11/30 09:51:57;;;;;;;35.50;25.45;;;;;;;6.85;100.00;102435.88;5031739;28;20395;-53
2022/11/30 09:54:42;;;;;;;34.65;25.50;;;;;;;6.92;100.00;102438.31;5035693;28;20025;-56
2022/11/30 09:57:28;;;;;;;34.65;25.58;;;;;;;6.94;100.00;102442.59;5035453;28;20057;-57
2022/11/30 10:00:24;;;;;;;32.67;23.65;;;;;;;6.98;100.00;102438.09;5035192;28;20040;-57
2022/11/30 10:02:51;;;;;;;32.92;24.63;;;;;;;7.02;100.00;102443.19;5037193;28;20126;-57
2022/11/30 10:05:28;;;;;;;35.40;24.75;;;;;;;7.06;100.00;102438.69;5034418;28;20176;-55
2022/11/30 10:08:15;;;;;;;30.58;24.27;;;;;;;7.11;100.00;102441.16;5033492;28;20067;-53
2022/11/30 10:11:01;;;;;;;32.47;24.20;;;;;;;7.18;100.00;102432.94;5031855;28;20022;-53
2022/11/30 10:14:04;;;;;;;31.17;24.75;;;;;;;7.25;100.00;102435.38;5031908;28;20041;-56
2022/11/30 10:16:39;;;;;;;33.85;25.20;;;;;;;7.34;100.00;102433.22;5033374;28;20091;-56
2022/11/30 10:19:43;;;;;;;32.90;24.33;;;;;;;7.43;100.00;102423.22;5033507;28;20034;-56
2022/11/30 10:22:34;;;;;;;31.77;25.02;;;;;;;7.46;100.00;102431.94;5032464;28;20075;-56
2022/11/30 10:25:02;;;;;;;32.35;24.70;;;;;;;7.56;100.00;102428.00;5035717;28;20060;-56
2022/11/30 10:27:36;;;;;;;33.33;26.23;;;;;;;7.64;100.00;102429.47;5034821;28;20450;-56
2022/11/30 10:30:11;;;;;;;36.67;27.40;;;;;;;7.67;100.00;102424.09;5033046;28;20033;-56
2022/11/30 10:32:40;;;;;;;34.08;26.83;;;;;;;7.79;100.00;102428.88;5034357;28;20041;-55
2022/11/30 10:35:16;;;;;;;;;;;;;;;7.89;100.00;102422.31;5030493;28;20484;-53
2022/11/30 10:37:44;;;;;;;36.35;26.45;;;;;;;7.97;100.00;102417.56;5033053;28;19909;-53
2022/11/30 10:40:42;;;;;;;34.28;25.58;;;;;;;8.06;100.00;102416.34;5033892;28;20026;-55
2022/11/30 10:43:20;;;;;;;36.00;27.95;;;;;;;8.13;100.00;102414.31;5025857;28;20038;-56
2022/11/30 10:45:48;;;;;;;38.17;27.48;;;;;;;8.20;100.00;102412.28;5033218;28;20026;-54
2022/11/30 10:48:31;;;;;;;36.92;26.73;;;;;;;8.31;100.00;102413.53;5030560;28;20038;-54
2022/11/30 10:50:59;;;;;;;32.35;26.52;;;;;;;8.37;100.00;102408.91;5031133;28;20022;-56
2022/11/30 10:53:24;;;;;;;36.13;27.45;;;;;;;8.49;100.00;102409.28;5032066;28;20013;-54
2022/11/30 10:56:10;;;;;;;35.35;27.38;;;;;;;8.60;100.00;102410.63;5036059;28;20578;-55
2022/11/30 10:58:41;;;;;;;33.40;26.33;;;;;;;8.74;100.00;102415.31;5033232;28;20036;-54
2022/11/30 11:01:10;;;;;;;33.72;26.15;;;;;;;8.84;100.00;102401.59;5024652;28;20025;-53
2022/11/30 11:03:36;;;;;;;33.35;26.48;;;;;;;8.95;100.00;102397.59;5033942;28;20083;-55
2022/11/30 11:06:14;;;;;;;31.48;25.27;;;;;;;9.07;100.00;102395.25;5032920;28;20483;-54
2022/11/30 11:08:44;;;;;;;31.45;26.05;;;;;;;9.19;100.00;102398.28;5032684;28;20480;-57
2022/11/30 11:11:30;;;;;;;;;;;;;;;9.26;100.00;102397.94;5032275;28;20101;-53
2022/11/30 11:14:22;;;;;;;33.05;24.77;;;;;;;9.32;100.00;102404.72;5030074;28;19913;-55
2022/11/30 11:16:59;;;;;;;34.08;25.27;;;;;;;9.37;100.00;102401.88;5032387;28;20043;-55
2022/11/30 11:19:37;;;;;;;31.73;24.85;;;;;;;9.42;100.00;102397.22;5031920;28;20537;-55